sensor_id;sensor_type;location;lat;lon;timestamp;temperature;humidity
54824;DHT22;40724;53.196;5.980;2022-08-03T07:52:52;20.90;99.90
54824;DHT22;40724;53.196;5.980;2022-08-03T08:03:01;21.60;99.90
54824;DHT22;40724;53.196;5.980;2022-08-03T08:05:27;21.90;99.90
54824;DHT22;40724;53.196;5.980;2022-08-03T08:07:54;21.90;99.90
54824;DHT22;40724;53.196;5.980;2022-08-03T08:10:20;21.90;99.90
54824;DHT22;40724;53.196;5.980;2022-08-03T08:12:46;21.90;99.90
54824;DHT22;40724;53.196;5.980;2022-08-03T08:15:12;22.00;99.90
54824;DHT22;40724;53.196;5.980;2022-08-03T09:04:10;22.00;99.90
54824;DHT22;40724;53.196;5.980;2022-08-03T09:06:36;22.30;99.90
54824;DHT22;40724;53.196;5.980;2022-08-03T09:09:02;22.30;99.90
54824;DHT22;40724;53.196;5.980;2022-08-03T09:11:27;22.40;99.90
54824;DHT22;40724;53.196;5.980;2022-08-03T09:13:53;22.40;99.90
54824;DHT22;40724;53.196;5.980;2022-08-03T09:16:21;22.40;99.90
54824;DHT22;40724;53.196;5.980;2022-08-03T09:18:49;22.40;99.90
54824;DHT22;40724;53.196;5.980;2022-08-03T09:21:23;22.40;99.90
54824;DHT22;40724;53.196;5.980;2022-08-03T09:23:51;22.50;99.90
54824;DHT22;40724;53.196;5.980;2022-08-03T12:09:43;22.50;99.90
54824;DHT22;40724;53.196;5.980;2022-08-03T12:12:09;24.70;99.90
54824;DHT22;40724;53.196;5.980;2022-08-03T12:14:35;24.70;99.90
54824;DHT22;40724;53.196;5.980;2022-08-03T12:17:00;24.70;99.90
54824;DHT22;40724;53.196;5.980;2022-08-03T12:19:26;24.70;99.90
54824;DHT22;40724;53.196;5.980;2022-08-03T12:21:52;24.80;99.90
54824;DHT22;40724;53.196;5.980;2022-08-03T12:24:18;24.80;99.90
54824;DHT22;40724;53.196;5.980;2022-08-03T12:26:50;24.80;99.90
54824;DHT22;40724;53.196;5.980;2022-08-03T12:29:20;24.80;99.90
54824;DHT22;40724;53.196;5.980;2022-08-03T12:31:46;24.80;99.90
54824;DHT22;40724;53.196;5.980;2022-08-03T12:34:12;24.80;99.90
54824;DHT22;40724;53.196;5.980;2022-08-03T12:36:50;24.90;99.90
54824;DHT22;40724;53.196;5.980;2022-08-03T12:39:16;24.90;99.90
54824;DHT22;40724;53.196;5.980;2022-08-03T12:41:42;24.80;99.90
54824;DHT22;40724;53.196;5.980;2022-08-03T12:44:08;24.80;99.90
54824;DHT22;40724;53.196;5.980;2022-08-03T12:46:39;24.90;99.90
54824;DHT22;40724;53.196;5.980;2022-08-03T12:49:13;24.90;99.90
54824;DHT22;40724;53.196;5.980;2022-08-03T12:54:23;24.90;99.90
54824;DHT22;40724;53.196;5.980;2022-08-03T12:59:37;24.90;99.90
54824;DHT22;40724;53.196;5.980;2022-08-03T13:02:17;24.90;99.90
54824;DHT22;40724;53.196;5.980;2022-08-03T13:04:44;24.90;99.90
54824;DHT22;40724;53.196;5.980;2022-08-03T13:07:11;25.00;99.90
54824;DHT22;40724;53.196;5.980;2022-08-03T13:12:20;25.00;99.90
54824;DHT22;40724;53.196;5.980;2022-08-03T13:14:51;25.00;99.90
54824;DHT22;40724;53.196;5.980;2022-08-03T13:17:17;25.00;99.90
54824;DHT22;40724;53.196;5.980;2022-08-03T13:19:44;25.10;99.90
54824;DHT22;40724;53.196;5.980;2022-08-03T13:22:21;25.20;99.90
54824;DHT22;40724;53.196;5.980;2022-08-03T13:24:50;25.20;99.90
54824;DHT22;40724;53.196;5.980;2022-08-03T13:27:16;25.30;99.90
54824;DHT22;40724;53.196;5.980;2022-08-03T13:29:42;25.30;99.90
54824;DHT22;40724;53.196;5.980;2022-08-03T13:32:09;25.30;99.90
54824;DHT22;40724;53.196;5.980;2022-08-03T13:34:35;25.30;99.90
54824;DHT22;40724;53.196;5.980;2022-08-03T13:37:01;25.40;99.90
54824;DHT22;40724;53.196;5.980;2022-08-03T13:39:27;25.40;99.90
54824;DHT22;40724;53.196;5.980;2022-08-03T13:41:53;25.50;99.90
54824;DHT22;40724;53.196;5.980;2022-08-03T13:44:19;25.50;99.90
54824;DHT22;40724;53.196;5.980;2022-08-03T13:46:46;25.50;99.90
54824;DHT22;40724;53.196;5.980;2022-08-03T13:49:11;25.50;99.90
54824;DHT22;40724;53.196;5.980;2022-08-03T13:51:37;25.50;99.90
54824;DHT22;40724;53.196;5.980;2022-08-03T13:54:03;25.50;99.90
54824;DHT22;40724;53.196;5.980;2022-08-03T13:56:30;25.50;99.90
54824;DHT22;40724;53.196;5.980;2022-08-03T13:58:57;25.60;99.90
54824;DHT22;40724;53.196;5.980;2022-08-03T14:01:23;25.60;99.90
54824;DHT22;40724;53.196;5.980;2022-08-03T14:03:49;25.60;99.90
54824;DHT22;40724;53.196;5.980;2022-08-03T14:06:22;25.60;99.90
54824;DHT22;40724;53.196;5.980;2022-08-03T14:08:48;25.60;99.90
54824;DHT22;40724;53.196;5.980;2022-08-03T14:11:14;25.60;99.90
54824;DHT22;40724;53.196;5.980;2022-08-03T14:13:41;25.60;99.90
54824;DHT22;40724;53.196;5.980;2022-08-03T14:16:07;25.60;99.90
54824;DHT22;40724;53.196;5.980;2022-08-03T14:18:33;25.50;99.90
54824;DHT22;40724;53.196;5.980;2022-08-03T14:21:00;25.60;99.90
54824;DHT22;40724;53.196;5.980;2022-08-03T14:23:26;25.60;99.90
54824;DHT22;40724;53.196;5.980;2022-08-03T14:25:52;25.60;99.90
54824;DHT22;40724;53.196;5.980;2022-08-03T14:28:20;25.70;99.90
54824;DHT22;40724;53.196;5.980;2022-08-03T14:30:47;25.70;99.90
54824;DHT22;40724;53.196;5.980;2022-08-03T14:33:13;25.80;99.90
54824;DHT22;40724;53.196;5.980;2022-08-03T14:35:39;25.80;99.90
54824;DHT22;40724;53.196;5.980;2022-08-03T14:38:05;25.80;99.90
54824;DHT22;40724;53.196;5.980;2022-08-03T14:40:31;25.80;99.90
54824;DHT22;40724;53.196;5.980;2022-08-03T14:42:57;25.90;99.90
54824;DHT22;40724;53.196;5.980;2022-08-03T14:45:22;25.90;99.90
54824;DHT22;40724;53.196;5.980;2022-08-03T14:47:48;25.90;99.90
54824;DHT22;40724;53.196;5.980;2022-08-03T14:50:16;25.90;99.90
54824;DHT22;40724;53.196;5.980;2022-08-03T14:52:42;25.90;99.90
54824;DHT22;40724;53.196;5.980;2022-08-03T14:55:08;26.00;99.90
54824;DHT22;40724;53.196;5.980;2022-08-03T14:57:34;26.00;99.90
54824;DHT22;40724;53.196;5.980;2022-08-03T14:59:59;26.00;99.90
54824;DHT22;40724;53.196;5.980;2022-08-03T15:02:25;25.90;99.90
54824;DHT22;40724;53.196;5.980;2022-08-03T15:04:53;25.90;99.90
54824;DHT22;40724;53.196;5.980;2022-08-03T15:07:19;25.80;99.90
54824;DHT22;40724;53.196;5.980;2022-08-03T15:09:45;25.80;99.90
54824;DHT22;40724;53.196;5.980;2022-08-03T15:12:11;25.90;99.90
54824;DHT22;40724;53.196;5.980;2022-08-03T15:14:37;25.90;99.90
54824;DHT22;40724;53.196;5.980;2022-08-03T15:17:02;26.00;99.90
54824;DHT22;40724;53.196;5.980;2022-08-03T15:19:28;26.00;99.90
54824;DHT22;40724;53.196;5.980;2022-08-03T15:21:54;26.10;99.90
54824;DHT22;40724;53.196;5.980;2022-08-03T15:24:20;26.10;99.90
54824;DHT22;40724;53.196;5.980;2022-08-03T15:26:46;26.20;99.90
54824;DHT22;40724;53.196;5.980;2022-08-03T22:28:03;26.20;99.90
54824;DHT22;40724;53.196;5.980;2022-08-03T22:37:54;21.60;99.90
54824;DHT22;40724;53.196;5.980;2022-08-03T22:40:21;21.50;99.90
